METAR Data
IDs: Format: Raw Decoded Include TAF

Data at: 0913 UTC 20 Sep 2018

PANI 200856Z AUTO 23005KT 5SM -RA BR OVC006 09/09 A3016 RMK AO2 CIG 003V010 SLP183 P0005 60014 T00940089 401110083 58006
PANI 200847Z AUTO VRB06KT 2SM -RA BR OVC006 09/09 A3016 RMK AO2 CIG 003V009 P0004
PANI 200836Z AUTO VRB06KT 5SM -RA BR OVC006 09/09 A3016 RMK AO2 CIG 003V010 P0004
PANI 200808Z AUTO VRB03KT 3SM RA BR OVC004 09/09 A3017 RMK AO2 P0002
PANI 200756Z AUTO 00000KT 3SM -RA BR OVC006 09/09 A3017 RMK AO2 CIG 004V009 SLP186 P0008 T00940089
PANI 200748Z AUTO 26005KT 3SM RA BR BKN006 OVC013 09/09 A3017 RMK AO2 CIG 004V010 P0006
PANI 200738Z AUTO VRB03KT 2 1/2SM -RA BR BKN006 OVC013 09/09 A3018 RMK AO2 VIS 2V5 CIG 004V010 P0005
PANI 200724Z AUTO 25006KT 2 1/2SM RA BR BKN004 OVC015 09/09 A3018 RMK AO2 P0004
PANI 200656Z AUTO 23004KT 2SM -RA BR OVC006 09/09 A3018 RMK AO2 SLP189 P0001 T00940089
PANI 200654Z AUTO VRB05KT 2SM -RA BR OVC006 09/09 A3018 RMK AO2 P0001
PANI 200627Z AUTO 22005KT 5SM -RA BR BKN008 OVC012 09/09 A3018 RMK AO2 P0000
PANI 200556Z AUTO 20005KT 10SM -RA OVC012 09/08 A3019 RMK AO2 RAB06 SLP191 P0000 60001 T00940083 10111 20094 56004
PANI 200539Z AUTO VRB05KT 10SM -RA BKN012 BKN019 OVC026 10/08 A3019 RMK AO2 RAB06 P0000
PANI 200456Z AUTO VRB03KT 10SM BKN023 OVC060 10/08 A3019 RMK AO2 SLP193 T01000078
PANI 200452Z AUTO 19004KT 10SM BKN023 OVC060 10/08 A3019 RMK AO2
PANI 200356Z AUTO 23004KT 10SM SCT016 OVC034 11/08 A3020 RMK AO2 SLP195 P0001 T01060083
PANI 200256Z AUTO 24004KT 10SM BKN016 OVC022 10/08 A3021 RMK AO2 SLP197 60000 T01000078 58004
PANI 200207Z AUTO 23005KT 10SM FEW016 BKN026 OVC032 11/08 A3021 RMK AO2
PANI 200156Z AUTO 22005KT 10SM SCT016 OVC031 11/08 A3022 RMK AO2 SLP201 T01060078
PANI 200124Z AUTO 22007KT 10SM BKN015 OVC046 11/08 A3022 RMK AO2
PANI 200056Z AUTO 23008KT 10SM SCT013 OVC040 11/08 A3022 RMK AO2 RAB06E42 SLP201 P0000 T01060078
PANI 200049Z AUTO 22008KT 190V260 10SM SCT013 OVC040 10/08 A3022 RMK AO2 RAB06E42 P0000
PANI 200042Z AUTO 23006KT 10SM SCT013 BKN019 OVC038 10/08 A3022 RMK AO2 RAB06E42 P0000
PANI 200033Z AUTO 23010G16KT 6SM -RA BR BKN013 OVC019 10/08 A3022 RMK AO2 RAB06 P0000
PANI 200006Z AUTO 23005KT 10SM -RA BKN016 OVC038 11/08 A3022 RMK AO2 RAB06 P0000
PANI 192356Z AUTO 23008KT 10SM BKN014 BKN035 OVC042 11/08 A3023 RMK AO2 RAB10E53 SLP204 P0000 60000 T01060078 10111 20089 56009
PANI 192349Z AUTO 23007KT 10SM -RA BKN016 BKN025 OVC036 10/08 A3023 RMK AO2 RAB10 P0000
PANI 192340Z AUTO VRB06KT 5SM -RA BR BKN014 BKN020 OVC025 10/08 A3023 RMK AO2 RAB10 P0000
PANI 192256Z AUTO 23007G17KT 10SM BKN018 OVC028 11/08 A3023 RMK AO2 SLP206 T01110078
PANI 192234Z AUTO 22010G17KT 10SM OVC016 11/08 A3023 RMK AO2
PANI 192156Z AUTO 21006KT 10SM OVC012 11/08 A3024 RMK AO2 RAB24E37 SLP209 P0000 T01060078
PANI 192056Z AUTO 23005KT 10SM OVC010 10/08 A3025 RMK AO2 RAB41E54 SLP212 P0000 60000 T01000078 56009
PANI 191956Z AUTO 21005KT 10SM OVC010 09/08 A3026 RMK AO2 CIG 008V014 SLP215 T00940078
PANI 191931Z AUTO 21006KT 10SM OVC010 09/08 A3026 RMK AO2 CIG 007V013
PANI 191856Z AUTO 22007KT 10SM OVC008 09/08 A3026 RMK AO2 CIG 006V010 SLP217 T00890078
PANI 191756Z AUTO 23004KT 9SM BKN008 OVC011 09/08 A3028 RMK AO2 SLP221 60000 T00890078 10089 20089 50001
PANI 191744Z AUTO 22005KT 10SM BKN008 OVC012 09/08 A3028 RMK AO2 CIG 006V010
PANI 191736Z AUTO 22005KT 10SM OVC010 09/08 A3028 RMK AO2 CIG 007V013
PANI 191656Z AUTO 24005KT 10SM OVC006 09/08 A3028 RMK AO2 SLP222 T00890083
PANI 191556Z AUTO 23003KT 10SM OVC006 09/08 A3028 RMK AO2 RAE08B26E55 CIG 004V009 SLP222 P0000 T00890083
PANI 191536Z AUTO 22003KT 10SM -RA BKN006 OVC040 09/08 A3028 RMK AO2 RAE08B26 P0000
PANI 191521Z AUTO 23003KT 10SM SCT006 OVC040 09/08 A3028 RMK AO2 RAE08 P0000
PANI 191456Z AUTO 21005KT 3SM -RA BR BKN006 BKN019 OVC042 09/08 A3028 RMK AO2 RAB24 CIG 004V011 SLP221 P0000 60000 T00890083 58006
PANI 191356Z AUTO 22003KT 8SM BKN006 OVC012 09/08 A3028 RMK AO2 CIG 004V009 SLP223 T00890083
PANI 191349Z AUTO 00000KT 9SM BKN006 BKN012 OVC024 09/08 A3028 RMK AO2 CIG 005V009
PANI 191327Z AUTO VRB04KT 10SM SCT006 BKN012 OVC024 09/08 A3028 RMK AO2
PANI 191256Z AUTO 00000KT 10SM BKN006 BKN014 OVC037 09/08 A3029 RMK AO2 RAB26E42 SLP225 P0000 T00890083
PANI 191156Z AUTO 00000KT 10SM OVC008 09/08 A3029 RMK AO2 RAE00 SLP227 P0000 60001 70001 T00890083 10089 20067 58001
PANI 191110Z AUTO 00000KT 10SM BKN008 OVC015 09/08 A3029 RMK AO2 RAE00 P0000
PANI 191056Z AUTO 00000KT 10SM -RA BKN013 OVC034 09/08 A3030 RMK AO2 SLP228 P0001 T00890078
PANI 191051Z AUTO 00000KT 10SM -RA BKN013 BKN034 OVC046 09/08 A3030 RMK AO2 P0001
PANI 190956Z AUTO 22003KT 10SM -RA OVC044 09/07 A3030 RMK AO2 RAB15 SLP227 P0000 T00890072
PANI 190856Z AUTO 00000KT 10SM FEW017 OVC050 09/07 A3030 RMK AO2 SLP228 T00890067 401280067 51002
PANI 190756Z AUTO 00000KT 10SM OVC050 08/07 A3030 RMK AO2 SLP228 T00830067
PANI 190656Z AUTO 00000KT 10SM OVC050 08/06 A3029 RMK AO2 SLP227 T00780061
PANI 190556Z AUTO 00000KT 10SM BKN050 07/06 A3029 RMK AO2 SLP226 T00670056 10128 20067 51005
PANI 190456Z AUTO 26003KT 10SM SCT055 09/05 A3029 RMK AO2 SLP225 T00940050
PANI 190356Z AUTO 00000KT 10SM BKN055 11/04 A3028 RMK AO2 SLP223 T01110044
PANI 190256Z AUTO 26004KT 10SM OVC050 12/05 A3028 RMK AO2 SLP221 T01170050 58003
PANI 190156Z AUTO 24005KT 10SM OVC050 12/06 A3028 RMK AO2 SLP222 T01220056
PANI 190056Z AUTO 28007KT 10SM OVC055 12/06 A3028 RMK AO2 SLP224 T01170056
PANI 182356Z AUTO 25005KT 10SM FEW038 OVC050 12/07 A3029 RMK AO2 SLP224 T01170067 10122 20078 50002
PANI 182256Z AUTO 25006KT 10SM SCT026 OVC049 12/07 A3029 RMK AO2 SLP224 T01170067
PANI 182241Z AUTO 27005KT 10SM SCT026 OVC049 12/07 A3029 RMK AO2
PANI 182213Z AUTO 28007KT 10SM BKN026 OVC049 12/07 A3029 RMK AO2
PANI 182156Z AUTO 24006KT 10SM SCT024 OVC049 12/07 A3029 RMK AO2 SLP225 T01170067
PANI 182120Z AUTO 23004KT 10SM SCT022 BKN030 OVC047 12/07 A3028 RMK AO2